createdAt,value
2019-04-06T00:00:06.114Z,22.40
2019-04-06T00:02:38.594Z,24.20
2019-04-06T00:05:08.435Z,23.30
2019-04-06T00:07:37.590Z,23.30
2019-04-06T00:10:07.984Z,23.10
2019-04-06T00:12:37.211Z,22.10
2019-04-06T00:15:07.836Z,22.70
2019-04-06T00:17:37.019Z,23.10
2019-04-06T00:20:06.644Z,23.40
2019-04-06T00:22:35.976Z,21.03
2019-04-06T00:25:06.846Z,21.90
2019-04-06T00:27:36.051Z,22.90
2019-04-06T00:30:08.499Z,21.43
2019-04-06T00:32:41.979Z,21.33
2019-04-06T00:35:11.282Z,20.97
2019-04-06T00:37:40.479Z,22.97
2019-04-06T00:40:09.908Z,21.57
2019-04-06T00:42:39.200Z,22.00
2019-04-06T00:45:09.538Z,22.53
2019-04-06T00:47:38.736Z,23.80
2019-04-06T00:50:08.037Z,21.67
2019-04-06T00:52:37.248Z,22.53
2019-04-06T00:55:06.734Z,24.13
2019-04-06T00:57:35.946Z,21.43
2019-04-06T01:00:08.194Z,22.97
2019-04-06T01:02:37.413Z,21.87
2019-04-06T01:05:07.203Z,22.50
2019-04-06T01:07:36.595Z,23.40
2019-04-06T01:10:06.271Z,24.20
2019-04-06T01:12:35.475Z,24.43
2019-04-06T01:15:06.438Z,25.57
2019-04-06T01:17:35.644Z,25.57
2019-04-06T01:20:06.015Z,23.30
2019-04-06T01:22:36.286Z,23.40
2019-04-06T01:25:07.230Z,22.53
2019-04-06T01:27:36.438Z,23.70
2019-04-06T01:30:07.702Z,23.30
2019-04-06T01:32:36.918Z,23.43
2019-04-06T01:35:06.267Z,26.17
2019-04-06T01:37:35.594Z,24.90
2019-04-06T01:40:06.435Z,25.20
2019-04-06T01:42:35.659Z,26.27
2019-04-06T01:45:06.600Z,25.37
2019-04-06T01:47:35.855Z,25.27
2019-04-06T01:50:06.083Z,24.50
2019-04-06T01:52:36.326Z,24.60
2019-04-06T01:55:06.287Z,23.63
2019-04-06T01:57:35.779Z,23.27
2019-04-06T02:00:09.574Z,24.87
2019-04-06T02:02:40.448Z,24.53
2019-04-06T02:05:10.005Z,23.53
2019-04-06T02:07:39.217Z,23.37
2019-04-06T02:10:08.589Z,22.30
2019-04-06T02:12:37.816Z,22.53
2019-04-06T02:15:07.114Z,24.33
2019-04-06T02:17:36.438Z,25.23
2019-04-06T02:20:06.466Z,26.80
2019-04-06T02:22:35.797Z,24.20
2019-04-06T02:25:07.083Z,23.80
2019-04-06T02:27:36.302Z,22.13
2019-04-06T02:30:22.467Z,23.57
2019-04-06T02:33:02.245Z,22.40
2019-04-06T02:35:33.154Z,22.47
2019-04-06T02:38:04.057Z,23.37
2019-04-06T02:40:34.958Z,24.80
2019-04-06T02:43:12.145Z,23.50
2019-04-06T02:45:41.410Z,23.27
2019-04-06T02:48:10.643Z,21.93
2019-04-06T02:50:39.950Z,22.90
2019-04-06T02:53:09.535Z,21.60
2019-04-06T02:55:38.766Z,21.97
2019-04-06T02:58:07.989Z,21.93
2019-04-06T03:00:37.199Z,22.80
2019-04-06T03:03:06.581Z,23.00
2019-04-06T03:05:35.888Z,23.73
2019-04-06T03:08:05.137Z,23.30
2019-04-06T03:10:34.457Z,24.23
2019-04-06T03:13:03.785Z,22.30
2019-04-06T03:15:34.787Z,22.73
2019-04-06T03:18:04.265Z,22.43
2019-04-06T03:20:33.490Z,23.73
2019-04-06T03:23:02.812Z,21.70
2019-04-06T03:25:32.100Z,23.33
2019-04-06T03:28:01.339Z,23.47
2019-04-06T03:30:30.681Z,24.30
2019-04-06T03:33:00.209Z,21.63
2019-04-06T03:35:29.750Z,23.40
2019-04-06T03:37:59.252Z,24.23
2019-04-06T03:40:29.691Z,24.90
2019-04-06T03:42:59.979Z,23.30
2019-04-06T03:45:29.386Z,25.17
2019-04-06T03:47:58.691Z,24.03
2019-04-06T03:50:28.185Z,23.27
2019-04-06T03:52:57.427Z,23.67
2019-04-06T03:55:26.630Z,23.20
2019-04-06T03:57:55.860Z,22.00
2019-04-06T04:00:25.066Z,22.93
2019-04-06T04:02:54.291Z,22.43
2019-04-06T04:05:23.510Z,24.33
2019-04-06T04:07:52.798Z,23.40
2019-04-06T04:10:34.238Z,23.53
2019-04-06T04:13:03.543Z,22.90
2019-04-06T04:15:32.765Z,22.07
2019-04-06T04:18:02.046Z,23.30
2019-04-06T04:20:31.340Z,21.77
2019-04-06T04:23:00.706Z,24.10
2019-04-06T04:25:30.185Z,21.57
2019-04-06T04:27:59.448Z,20.20
2019-04-06T04:30:33.365Z,21.93
2019-04-06T04:32:59.779Z,22.53
2019-04-06T04:35:29.445Z,23.30
2019-04-06T04:37:59.164Z,22.57
2019-04-06T04:40:28.354Z,23.00
2019-04-06T04:42:57.778Z,21.23
2019-04-06T04:45:27.062Z,21.90
2019-04-06T04:47:56.650Z,23.93
2019-04-06T04:50:26.010Z,23.67
2019-04-06T04:52:55.355Z,22.47
2019-04-06T04:55:24.560Z,22.30
2019-04-06T04:57:53.787Z,21.20
2019-04-06T05:00:23.169Z,24.57
2019-04-06T05:02:52.498Z,23.83
2019-04-06T05:05:21.700Z,25.53
2019-04-06T05:07:50.927Z,24.23
2019-04-06T05:10:20.177Z,28.10
2019-04-06T05:12:49.444Z,27.03
2019-04-06T05:15:30.695Z,29.00
2019-04-06T05:17:59.926Z,26.63
2019-04-06T05:20:29.150Z,25.83
2019-04-06T05:22:58.428Z,24.73
2019-04-06T05:25:27.640Z,25.60
2019-04-06T05:27:56.859Z,25.00
2019-04-06T05:30:26.090Z,24.17
2019-04-06T05:32:55.314Z,24.83
2019-04-06T05:35:24.518Z,26.33
2019-04-06T05:37:53.887Z,23.07
2019-04-06T05:40:23.185Z,24.80
2019-04-06T05:42:52.516Z,23.83
2019-04-06T05:45:21.721Z,24.60
2019-04-06T05:47:50.939Z,22.20
2019-04-06T05:50:20.138Z,23.97
2019-04-06T05:52:49.374Z,23.97
2019-04-06T05:55:18.600Z,25.17
2019-04-06T05:57:47.799Z,25.17
2019-04-06T06:00:17.195Z,25.40
2019-04-06T06:02:46.402Z,23.40
2019-04-06T06:05:15.619Z,24.20
2019-04-06T06:07:44.846Z,24.03
2019-04-06T06:10:14.112Z,24.47
2019-04-06T06:12:43.340Z,23.33
2019-04-06T06:15:12.713Z,24.40
2019-04-06T06:17:41.947Z,26.37
2019-04-06T06:20:11.549Z,24.77
2019-04-06T06:22:41.367Z,25.80
2019-04-06T06:25:10.869Z,25.03
2019-04-06T06:27:40.100Z,25.50
2019-04-06T06:30:10.076Z,25.13
2019-04-06T06:32:39.451Z,26.17
2019-04-06T06:35:09.095Z,27.10
2019-04-06T06:37:39.391Z,25.77
2019-04-06T06:40:08.872Z,25.40
2019-04-06T06:42:38.421Z,24.80
2019-04-06T06:45:07.903Z,25.63
2019-04-06T06:47:37.131Z,27.23
2019-04-06T06:50:07.375Z,27.10
2019-04-06T06:52:36.632Z,28.13
2019-04-06T06:55:07.639Z,26.13
2019-04-06T06:57:36.867Z,28.70
2019-04-06T07:00:07.107Z,25.93
2019-04-06T07:02:36.341Z,29.13
2019-04-06T07:05:06.707Z,32.27
2019-04-06T07:07:36.883Z,32.33
2019-04-06T07:10:07.122Z,31.43
2019-04-06T07:12:36.349Z,29.63
2019-04-06T07:15:09.401Z,31.17
2019-04-06T07:17:38.628Z,29.07
2019-04-06T07:20:08.294Z,30.00
2019-04-06T07:22:37.566Z,26.90
2019-04-06T07:25:07.155Z,28.60
2019-04-06T07:27:36.397Z,29.00
2019-04-06T07:30:09.262Z,28.30
2019-04-06T07:32:38.499Z,28.33
2019-04-06T07:35:08.193Z,26.90
2019-04-06T07:37:37.767Z,25.57
2019-04-06T07:40:11.379Z,25.77
2019-04-06T07:42:40.636Z,25.90
2019-04-06T07:45:10.521Z,25.20
2019-04-06T07:47:39.747Z,25.60
2019-04-06T07:50:09.295Z,26.77
2019-04-06T07:52:38.799Z,25.43
2019-04-06T07:55:08.073Z,25.47
2019-04-06T07:57:37.419Z,23.80
2019-04-06T08:00:08.003Z,23.97
2019-04-06T08:02:37.287Z,25.30
2019-04-06T08:05:06.857Z,24.13
2019-04-06T08:07:36.062Z,24.03
2019-04-06T08:10:06.949Z,22.67
2019-04-06T08:12:36.150Z,25.00
2019-04-06T08:15:07.607Z,25.10
2019-04-06T08:17:36.836Z,24.53
2019-04-06T08:20:07.583Z,23.13
2019-04-06T08:22:36.818Z,21.73
2019-04-06T08:25:06.565Z,23.40
2019-04-06T08:27:36.771Z,23.97
2019-04-06T08:30:10.754Z,22.77
2019-04-06T08:32:39.987Z,22.73
2019-04-06T08:35:10.333Z,21.43
2019-04-06T08:37:39.571Z,21.63
2019-04-06T08:40:09.320Z,23.20
2019-04-06T08:42:38.554Z,22.03
2019-04-06T08:45:08.062Z,23.00
2019-04-06T08:47:37.273Z,22.13
2019-04-06T08:50:07.443Z,21.93
2019-04-06T08:52:36.740Z,20.60
2019-04-06T08:55:07.188Z,21.37
2019-04-06T08:57:37.595Z,22.63
2019-04-06T09:00:07.342Z,22.60
2019-04-06T09:02:36.571Z,20.83
2019-04-06T09:05:07.034Z,21.43
2019-04-06T09:07:36.271Z,22.23
2019-04-06T09:10:06.815Z,22.57
2019-04-06T09:12:36.320Z,22.33
2019-04-06T09:15:08.270Z,21.13
2019-04-06T09:17:37.500Z,22.13
2019-04-06T09:20:09.853Z,22.70
2019-04-06T09:22:39.163Z,22.32
2019-04-06T09:25:08.555Z,23.10
2019-04-06T09:27:37.771Z,23.70
2019-04-06T09:30:07.579Z,22.07
2019-04-06T09:32:36.934Z,24.10
2019-04-06T09:35:06.444Z,26.20
2019-04-06T09:37:35.666Z,21.87
2019-04-06T09:40:07.167Z,23.10
2019-04-06T09:42:36.480Z,21.93
2019-04-06T09:45:25.070Z,24.07
2019-04-06T09:47:55.969Z,22.30
2019-04-06T09:50:26.869Z,22.60
2019-04-06T09:52:57.742Z,25.47
2019-04-06T09:55:28.599Z,22.20
2019-04-06T09:58:17.802Z,23.00
2019-04-06T10:00:57.700Z,21.73
2019-04-06T10:03:45.202Z,23.93
2019-04-06T10:06:22.104Z,22.70
2019-04-06T10:08:56.596Z,23.40
2019-04-06T10:11:44.126Z,22.73
2019-04-06T10:14:31.642Z,22.17
2019-04-06T10:17:08.624Z,24.10
2019-04-06T10:19:39.716Z,24.03
2019-04-06T10:22:10.792Z,24.00
2019-04-06T10:24:56.763Z,23.97
2019-04-06T10:27:27.622Z,25.20
2019-04-06T10:29:58.478Z,23.50
2019-04-06T10:32:44.622Z,23.47
2019-04-06T10:35:21.049Z,23.97
2019-04-06T10:37:54.586Z,24.23
2019-04-06T10:40:25.534Z,23.80
2019-04-06T10:42:57.563Z,24.37
2019-04-06T10:45:34.532Z,24.17
2019-04-06T10:48:18.094Z,23.07
2019-04-06T10:51:04.267Z,22.23
2019-04-06T10:53:50.127Z,22.90
2019-04-06T10:56:33.252Z,23.70
2019-04-06T10:59:04.195Z,23.70
2019-04-06T11:01:51.782Z,24.53
2019-04-06T11:04:25.663Z,25.03
2019-04-06T11:06:59.646Z,25.40
2019-04-06T11:09:30.523Z,25.13
2019-04-06T11:12:17.648Z,25.80
2019-04-06T11:15:00.574Z,24.23
2019-04-06T11:17:34.648Z,26.20
2019-04-06T11:20:20.231Z,24.33
2019-04-06T11:22:54.227Z,22.97
2019-04-06T11:25:25.078Z,24.60
2019-04-06T11:27:55.967Z,23.53
2019-04-06T11:30:38.847Z,24.43
2019-04-06T11:33:25.947Z,22.97
2019-04-06T11:35:59.773Z,23.03
2019-04-06T11:38:46.118Z,22.40
2019-04-06T11:41:16.965Z,22.33
2019-04-06T11:44:00.059Z,23.70
2019-04-06T11:46:45.957Z,23.07
2019-04-06T11:49:19.754Z,22.10
2019-04-06T11:51:56.584Z,21.07
2019-04-06T11:54:44.035Z,23.83
2019-04-06T11:57:20.710Z,22.60
2019-04-06T12:00:00.711Z,23.20
2019-04-06T12:02:34.507Z,23.97
2019-04-06T12:05:08.256Z,22.43
2019-04-06T12:07:47.901Z,22.20
2019-04-06T12:10:24.767Z,21.17
2019-04-06T12:12:58.563Z,24.30
2019-04-06T12:15:41.188Z,24.13
2019-04-06T12:18:12.058Z,24.33
2019-04-06T12:20:59.536Z,22.73
2019-04-06T12:23:36.387Z,23.00
2019-04-06T12:26:23.868Z,22.33
2019-04-06T12:29:04.162Z,23.80
2019-04-06T12:31:51.567Z,23.40
2019-04-06T12:34:38.753Z,24.53
2019-04-06T12:37:15.940Z,23.00
2019-04-06T12:39:59.042Z,24.07
2019-04-06T12:42:46.624Z,24.47
2019-04-06T12:45:33.746Z,23.90
2019-04-06T12:48:07.603Z,23.37
2019-04-06T12:50:55.105Z,22.93
2019-04-06T12:53:42.928Z,22.73
2019-04-06T12:56:30.417Z,22.30
2019-04-06T12:59:19.703Z,22.10
2019-04-06T13:02:02.715Z,22.47
2019-04-06T13:04:36.249Z,20.40
2019-04-06T13:07:23.944Z,17.87
2019-04-06T13:09:54.795Z,16.60
2019-04-06T13:12:26.638Z,17.20
2019-04-06T13:14:57.915Z,16.33
2019-04-06T13:17:28.939Z,16.47
2019-04-06T13:20:15.144Z,16.47
2019-04-06T13:22:50.140Z,14.63
2019-04-06T13:25:25.037Z,15.17
2019-04-06T13:28:01.933Z,14.10
2019-04-06T13:30:45.007Z,14.00
2019-04-06T13:33:15.877Z,14.27
2019-04-06T13:35:49.955Z,14.93
2019-04-06T13:38:26.528Z,13.33
2019-04-06T13:41:00.167Z,14.63
2019-04-06T13:43:47.297Z,14.07
2019-04-06T13:46:23.933Z,13.60
2019-04-06T13:49:00.814Z,14.83
2019-04-06T13:51:40.899Z,14.43
2019-04-06T13:54:15.515Z,13.10
2019-04-06T13:56:55.163Z,12.73
2019-04-06T13:59:26.078Z,14.20
2019-04-06T14:02:11.911Z,13.60
2019-04-06T14:04:51.935Z,13.77
2019-04-06T14:07:23.064Z,13.50
2019-04-06T14:10:11.093Z,13.67
2019-04-06T14:12:53.978Z,14.70
2019-04-06T14:15:41.355Z,13.73
2019-04-06T14:18:21.159Z,15.50
2019-04-06T14:20:54.790Z,14.10
2019-04-06T14:23:28.659Z,15.10
2019-04-06T14:26:16.071Z,14.07
2019-04-06T14:28:50.010Z,14.30
2019-04-06T14:31:33.136Z,15.73
2019-04-06T14:34:20.638Z,15.60
2019-04-06T14:36:57.263Z,16.00
2019-04-06T14:39:28.150Z,15.33
2019-04-06T14:42:05.186Z,15.93
2019-04-06T14:44:38.755Z,16.10
2019-04-06T14:47:12.150Z,17.10
2019-04-06T14:49:55.452Z,15.17
2019-04-06T14:52:29.463Z,15.90
2019-04-06T14:55:06.437Z,15.37
2019-04-06T14:57:37.356Z,15.90
2019-04-06T15:00:10.042Z,15.10
2019-04-06T15:02:56.053Z,14.93
2019-04-06T15:05:33.208Z,16.40
2019-04-06T15:08:08.306Z,15.00
2019-04-06T15:10:48.413Z,14.47
2019-04-06T15:13:19.290Z,15.87
2019-04-06T15:15:59.685Z,15.53
2019-04-06T15:18:47.228Z,16.20
2019-04-06T15:21:27.729Z,14.53
2019-04-06T15:23:58.618Z,16.70
2019-04-06T15:26:36.253Z,15.40
2019-04-06T15:29:13.091Z,16.57
2019-04-06T15:31:59.065Z,15.20
2019-04-06T15:34:32.741Z,16.10
2019-04-06T15:37:19.977Z,15.20
2019-04-06T15:39:50.822Z,18.60
2019-04-06T15:42:33.475Z,17.70
2019-04-06T15:45:20.702Z,16.47
2019-04-06T15:48:00.547Z,16.90
2019-04-06T15:50:31.396Z,17.33
2019-04-06T15:53:02.420Z,18.63
2019-04-06T15:55:42.146Z,18.73
2019-04-06T15:58:29.362Z,16.70
2019-04-06T16:01:09.682Z,15.70
2019-04-06T16:03:40.555Z,16.80
2019-04-06T16:06:20.206Z,17.07
2019-04-06T16:08:51.087Z,16.37
2019-04-06T16:11:22.027Z,15.80
2019-04-06T16:14:11.332Z,14.20
2019-04-06T16:16:45.143Z,14.17
2019-04-06T16:19:16.060Z,12.90
2019-04-06T16:21:49.960Z,13.00
2019-04-06T16:24:23.948Z,11.87
2019-04-06T16:26:57.578Z,14.37
2019-04-06T16:29:31.089Z,16.33
2019-04-06T16:32:14.007Z,14.10
2019-04-06T16:34:54.103Z,15.00
2019-04-06T16:37:25.426Z,14.93
2019-04-06T16:40:08.279Z,14.30
2019-04-06T16:42:57.379Z,14.43
2019-04-06T16:45:43.444Z,14.97
2019-04-06T16:48:20.194Z,13.17
2019-04-06T16:50:59.807Z,14.13
2019-04-06T16:53:30.978Z,13.43
2019-04-06T16:56:10.919Z,14.47
2019-04-06T16:58:45.845Z,14.87
2019-04-06T17:01:22.939Z,13.60
2019-04-06T17:04:08.888Z,13.97
2019-04-06T17:06:39.731Z,13.30
2019-04-06T17:09:19.450Z,12.80
2019-04-06T17:12:06.504Z,12.93
2019-04-06T17:14:53.894Z,11.80
2019-04-06T17:17:31.403Z,11.67
2019-04-06T17:20:18.615Z,12.60
2019-04-06T17:22:55.747Z,12.13
2019-04-06T17:25:29.292Z,11.37
2019-04-06T17:28:00.540Z,13.23
2019-04-06T17:30:40.851Z,12.93
2019-04-06T17:33:14.943Z,14.20
2019-04-06T17:35:45.810Z,13.57
2019-04-06T17:38:16.921Z,13.37
2019-04-06T17:40:53.823Z,14.17
2019-04-06T17:43:33.786Z,13.10
2019-04-06T17:46:22.762Z,14.30
2019-04-06T17:48:53.626Z,13.30
2019-04-06T17:51:30.178Z,13.80
2019-04-06T17:54:17.250Z,13.27
2019-04-06T17:56:50.971Z,13.40
2019-04-06T17:59:24.816Z,13.43
2019-04-06T18:02:04.843Z,13.00
2019-04-06T18:04:35.765Z,13.83
2019-04-06T18:07:12.799Z,14.10
2019-04-06T18:10:00.139Z,12.73
2019-04-06T18:12:31.023Z,12.60
2019-04-06T18:15:00.808Z,14.77
2019-04-06T18:17:30.288Z,13.70
2019-04-06T18:19:59.554Z,14.27
2019-04-06T18:22:28.853Z,14.47
2019-04-06T18:24:58.088Z,14.10
2019-04-06T18:27:27.461Z,15.10
2019-04-06T18:29:56.745Z,14.13
2019-04-06T18:32:27.698Z,13.50
2019-04-06T18:34:56.984Z,14.30
2019-04-06T18:37:28.928Z,13.87
2019-04-06T18:39:59.813Z,12.00
2019-04-06T18:42:29.045Z,13.30
2019-04-06T18:44:58.730Z,14.30
2019-04-06T18:47:27.972Z,14.37
2019-04-06T18:49:57.316Z,14.83
2019-04-06T18:52:27.240Z,14.50
2019-04-06T18:54:56.542Z,12.80
2019-04-06T18:57:25.758Z,16.00
2019-04-06T18:59:55.293Z,15.87
2019-04-06T19:02:24.671Z,16.23
2019-04-06T19:04:54.285Z,15.57
2019-04-06T19:07:23.522Z,15.70
2019-04-06T19:09:52.767Z,14.40
2019-04-06T19:12:21.993Z,14.97
2019-04-06T19:14:51.293Z,15.13
2019-04-06T19:17:20.504Z,15.93
2019-04-06T19:19:49.997Z,13.97
2019-04-06T19:22:19.391Z,14.27
2019-04-06T19:24:48.761Z,14.50
2019-04-06T19:27:18.273Z,15.00
2019-04-06T19:29:47.558Z,14.73
2019-04-06T19:32:17.086Z,13.83
2019-04-06T19:34:46.368Z,15.27
2019-04-06T19:37:16.032Z,15.50
2019-04-06T19:39:45.408Z,15.60
2019-04-06T19:42:14.634Z,15.00
2019-04-06T19:44:43.849Z,15.53
2019-04-06T19:47:13.083Z,27.10
2019-04-06T19:49:42.292Z,14.37
2019-04-06T19:52:11.788Z,15.73
2019-04-06T19:54:41.529Z,15.57
2019-04-06T19:57:10.884Z,14.50
2019-04-06T19:59:40.248Z,14.50
2019-04-06T20:02:09.461Z,14.73
2019-04-06T20:04:38.707Z,15.40
2019-04-06T20:07:09.666Z,13.83
2019-04-06T20:09:38.905Z,14.57
2019-04-06T20:12:08.146Z,14.83
2019-04-06T20:14:38.416Z,14.07
2019-04-06T20:17:07.694Z,15.77
2019-04-06T20:19:37.331Z,15.20
2019-04-06T20:22:07.637Z,14.43
2019-04-06T20:24:37.342Z,15.67
2019-04-06T20:27:07.133Z,14.50
2019-04-06T20:29:36.759Z,15.53
2019-04-06T20:32:05.986Z,15.83
2019-04-06T20:34:35.511Z,15.70
2019-04-06T20:37:05.311Z,15.20
2019-04-06T20:39:34.534Z,15.23
2019-04-06T20:42:03.995Z,16.53
2019-04-06T20:44:33.315Z,16.67
2019-04-06T20:47:02.573Z,16.93
2019-04-06T20:49:32.009Z,15.30
2019-04-06T20:52:01.856Z,16.20
2019-04-06T20:54:31.178Z,16.80
2019-04-06T20:57:00.497Z,14.73
2019-04-06T20:59:29.802Z,15.77
2019-04-06T21:01:59.037Z,14.70
2019-04-06T21:04:28.244Z,15.37
2019-04-06T21:06:57.488Z,14.73
2019-04-06T21:09:26.852Z,14.80
2019-04-06T21:11:56.108Z,14.03
2019-04-06T21:14:25.315Z,16.13
2019-04-06T21:16:54.616Z,15.20
2019-04-06T21:19:23.944Z,15.77
2019-04-06T21:21:53.608Z,15.43
2019-04-06T21:24:23.442Z,16.83
2019-04-06T21:26:53.205Z,16.30
2019-04-06T21:29:23.335Z,16.07
2019-04-06T21:31:53.754Z,16.67
2019-04-06T21:34:22.983Z,15.50
2019-04-06T21:36:52.751Z,16.50
2019-04-06T21:39:22.388Z,15.50
2019-04-06T21:41:51.706Z,16.37
2019-04-06T21:44:20.944Z,15.33
2019-04-06T21:46:50.166Z,15.60
2019-04-06T21:49:19.786Z,16.03
2019-04-06T21:51:49.188Z,15.90
2019-04-06T21:54:18.388Z,15.67
2019-04-06T21:56:47.880Z,16.60
2019-04-06T21:59:18.119Z,17.93
2019-04-06T22:01:47.744Z,17.23
2019-04-06T22:04:23.589Z,17.00
2019-04-06T22:06:47.971Z,16.10
2019-04-06T22:09:17.567Z,16.73
2019-04-06T22:11:46.912Z,16.10
2019-04-06T22:14:16.139Z,17.10
2019-04-06T22:16:45.810Z,17.57
2019-04-06T22:19:15.597Z,17.30
2019-04-06T22:21:46.311Z,18.80
2019-04-06T22:24:15.871Z,17.60
2019-04-06T22:26:45.188Z,18.47
2019-04-06T22:29:14.505Z,18.90
2019-04-06T22:31:43.833Z,18.50
2019-04-06T22:34:13.527Z,17.80
2019-04-06T22:36:42.807Z,16.80
2019-04-06T22:39:12.264Z,18.83
2019-04-06T22:41:42.050Z,19.30
2019-04-06T22:44:11.407Z,20.63
2019-04-06T22:46:40.772Z,18.57
2019-04-06T22:49:10.143Z,19.77
2019-04-06T22:51:39.359Z,17.97
2019-04-06T22:54:08.583Z,19.93
2019-04-06T22:56:37.926Z,18.33
2019-04-06T22:59:07.605Z,18.27
2019-04-06T23:01:38.952Z,18.27
2019-04-06T23:04:09.916Z,20.00
2019-04-06T23:06:59.107Z,17.80
2019-04-06T23:09:29.468Z,18.37
2019-04-06T23:11:58.703Z,18.90
2019-04-06T23:14:28.415Z,18.10
2019-04-06T23:16:57.787Z,19.53
2019-04-06T23:19:29.388Z,18.47
2019-04-06T23:21:58.789Z,19.43
2019-04-06T23:24:27.999Z,18.50
2019-04-06T23:26:57.796Z,20.23
2019-04-06T23:29:27.121Z,19.33
2019-04-06T23:31:56.351Z,20.20
2019-04-06T23:34:25.881Z,19.00
2019-04-06T23:36:55.777Z,20.20
2019-04-06T23:39:25.254Z,19.13
2019-04-06T23:41:55.064Z,19.70
2019-04-06T23:44:24.930Z,18.70
2019-04-06T23:46:54.338Z,18.80
2019-04-06T23:49:23.775Z,18.80
2019-04-06T23:51:53.316Z,19.60
2019-04-06T23:54:23.033Z,18.30
2019-04-06T23:56:52.986Z,18.67
2019-04-06T23:59:22.332Z,18.53
